createdAt,value
2019-01-11T00:00:47.628Z,2.90
2019-01-11T00:03:20.688Z,2.90
2019-01-11T00:05:53.618Z,2.90
2019-01-11T00:08:26.688Z,2.90
2019-01-11T00:10:59.408Z,2.80
2019-01-11T00:13:32.018Z,2.90
2019-01-11T00:16:05.449Z,2.90
2019-01-11T00:18:38.448Z,3.00
2019-01-11T00:21:12.638Z,2.90
2019-01-11T00:23:45.528Z,3.00
2019-01-11T00:26:19.147Z,2.90
2019-01-11T00:28:52.193Z,2.90
2019-01-11T00:31:25.737Z,2.90
2019-01-11T00:33:58.402Z,2.90
2019-01-11T00:36:31.128Z,2.90
2019-01-11T00:39:04.659Z,3.00
2019-01-11T00:41:38.077Z,2.90
2019-01-11T00:44:11.238Z,2.90
2019-01-11T00:46:44.347Z,2.90
2019-01-11T00:49:17.928Z,2.90
2019-01-11T00:51:51.519Z,2.90
2019-01-11T00:54:23.828Z,2.90
2019-01-11T00:56:56.488Z,2.90
2019-01-11T00:59:29.838Z,2.80
2019-01-11T01:02:03.148Z,2.80
2019-01-11T01:04:36.838Z,2.80
2019-01-11T01:07:10.348Z,2.80
2019-01-11T01:09:43.437Z,2.80
2019-01-11T01:12:17.258Z,2.80
2019-01-11T01:14:51.388Z,2.80
2019-01-11T01:17:24.657Z,2.80
2019-01-11T01:19:58.028Z,2.80
2019-01-11T01:22:35.059Z,2.80
2019-01-11T01:25:07.538Z,2.80
2019-01-11T01:27:40.938Z,2.90
2019-01-11T01:30:15.579Z,2.80
2019-01-11T01:32:49.278Z,2.80
2019-01-11T01:35:22.231Z,2.80
2019-01-11T01:37:54.917Z,2.90
2019-01-11T01:40:28.787Z,2.80
2019-01-11T01:43:01.519Z,2.80
2019-01-11T01:45:34.536Z,2.80
2019-01-11T01:48:07.079Z,2.80
2019-01-11T01:50:40.368Z,2.80
2019-01-11T01:53:13.269Z,2.80
2019-01-11T01:55:46.448Z,2.90
2019-01-11T01:58:19.957Z,2.80
2019-01-11T02:00:53.077Z,2.80
2019-01-11T02:03:25.947Z,2.70
2019-01-11T02:05:58.918Z,2.70
2019-01-11T02:08:32.007Z,2.70
2019-01-11T02:11:05.548Z,2.70
2019-01-11T02:13:38.032Z,2.70
2019-01-11T02:16:11.358Z,2.70
2019-01-11T02:18:45.137Z,2.70
2019-01-11T02:21:17.648Z,2.80
2019-01-11T02:23:51.297Z,2.80
2019-01-11T02:26:23.568Z,2.80
2019-01-11T02:28:56.916Z,2.80
2019-01-11T02:31:30.299Z,2.80
2019-01-11T02:34:03.501Z,2.80
2019-01-11T02:36:36.240Z,2.80
2019-01-11T02:39:09.749Z,2.80
2019-01-11T02:41:43.001Z,2.90
2019-01-11T02:44:16.918Z,2.90
2019-01-11T02:46:49.278Z,2.90
2019-01-11T02:49:22.622Z,2.80
2019-01-11T02:51:55.887Z,2.80
2019-01-11T02:54:27.739Z,2.80
2019-01-11T02:57:00.476Z,2.70
2019-01-11T02:59:34.018Z,2.80
2019-01-11T03:02:07.299Z,2.80
2019-01-11T03:04:40.658Z,2.80
2019-01-11T03:07:13.402Z,2.70
2019-01-11T03:09:46.317Z,2.70
2019-01-11T03:12:19.017Z,2.80
2019-01-11T03:14:52.407Z,2.80
2019-01-11T03:17:25.397Z,2.90
2019-01-11T03:19:58.848Z,2.80
2019-01-11T03:22:31.198Z,2.80
2019-01-11T03:25:04.237Z,2.80
2019-01-11T03:27:36.878Z,2.90
2019-01-11T03:30:11.730Z,2.90
2019-01-11T03:32:44.689Z,2.90
2019-01-11T03:35:18.329Z,2.90
2019-01-11T03:37:55.477Z,2.90
2019-01-11T03:40:29.517Z,2.80
2019-01-11T03:43:02.580Z,2.80
2019-01-11T03:45:35.685Z,2.60
2019-01-11T03:48:08.019Z,2.60
2019-01-11T03:50:41.629Z,2.60
2019-01-11T03:53:14.597Z,2.60
2019-01-11T03:55:47.047Z,2.50
2019-01-11T03:58:20.858Z,2.50
2019-01-11T04:00:54.138Z,2.40
2019-01-11T04:03:27.507Z,2.40
2019-01-11T04:05:59.868Z,2.30
2019-01-11T04:08:32.789Z,2.20
2019-01-11T04:11:06.019Z,2.20
2019-01-11T04:13:38.591Z,2.20
2019-01-11T04:16:11.216Z,2.20
2019-01-11T04:19:01.137Z,2.10
2019-01-11T04:21:33.978Z,2.10
2019-01-11T04:24:06.698Z,2.00
2019-01-11T04:26:39.427Z,1.90
2019-01-11T04:29:11.648Z,1.90
2019-01-11T04:31:45.398Z,1.80
2019-01-11T04:34:18.477Z,1.80
2019-01-11T04:36:51.609Z,1.80
2019-01-11T04:39:24.877Z,1.70
2019-01-11T04:41:57.673Z,1.70
2019-01-11T04:44:30.238Z,1.70
2019-01-11T04:47:03.418Z,1.70
2019-01-11T04:49:37.008Z,1.80
2019-01-11T04:52:10.288Z,1.90
2019-01-11T04:54:44.708Z,2.00
2019-01-11T04:57:18.197Z,2.00
2019-01-11T04:59:51.388Z,2.10
2019-01-11T05:02:23.638Z,2.00
2019-01-11T05:04:56.705Z,2.10
2019-01-11T05:07:29.378Z,2.10
2019-01-11T05:10:02.978Z,2.20
2019-01-11T05:12:36.588Z,2.20
2019-01-11T05:15:10.154Z,2.20
2019-01-11T05:17:43.480Z,2.20
2019-01-11T05:20:17.787Z,2.20
2019-01-11T05:22:51.200Z,2.10
2019-01-11T05:25:23.618Z,2.00
2019-01-11T05:27:56.709Z,2.10
2019-01-11T05:30:29.738Z,2.10
2019-01-11T05:33:02.850Z,2.00
2019-01-11T05:35:35.107Z,2.10
2019-01-11T05:38:08.852Z,2.10
2019-01-11T05:40:42.238Z,2.20
2019-01-11T05:43:15.297Z,2.10
2019-01-11T05:45:48.458Z,2.00
2019-01-11T05:48:21.604Z,2.00
2019-01-11T05:50:54.505Z,1.90
2019-01-11T05:53:27.149Z,2.00
2019-01-11T05:56:01.698Z,2.10
2019-01-11T05:58:38.030Z,2.00
2019-01-11T06:01:11.009Z,2.10
2019-01-11T06:03:44.358Z,2.10
2019-01-11T06:06:17.948Z,2.00
2019-01-11T06:08:51.549Z,1.90
2019-01-11T06:11:25.759Z,1.90
2019-01-11T06:13:59.317Z,1.80
2019-01-11T06:16:32.848Z,1.90
2019-01-11T06:19:06.118Z,1.80
2019-01-11T06:21:39.467Z,1.80
2019-01-11T06:24:13.098Z,1.70
2019-01-11T06:26:46.628Z,1.70
2019-01-11T06:29:19.317Z,1.70
2019-01-11T06:31:51.658Z,1.70
2019-01-11T06:34:24.607Z,1.70
2019-01-11T06:36:57.738Z,1.60
2019-01-11T06:39:30.368Z,1.50
2019-01-11T06:42:10.028Z,1.50
2019-01-11T06:44:43.088Z,1.50
2019-01-11T06:47:16.910Z,1.50
2019-01-11T06:49:49.718Z,1.50
2019-01-11T06:52:22.507Z,1.50
2019-01-11T06:54:55.878Z,1.50
2019-01-11T06:57:29.219Z,1.50
2019-01-11T07:00:02.227Z,1.50
2019-01-11T07:02:35.451Z,1.40
2019-01-11T07:05:08.217Z,1.40
2019-01-11T07:07:41.998Z,1.30
2019-01-11T07:10:18.410Z,1.30
2019-01-11T07:12:51.766Z,1.30
2019-01-11T07:15:25.298Z,1.30
2019-01-11T07:17:58.177Z,1.40
2019-01-11T07:20:31.368Z,1.30
2019-01-11T07:23:04.838Z,1.40
2019-01-11T07:25:38.327Z,1.40
2019-01-11T07:28:13.757Z,1.40
2019-01-11T07:31:03.838Z,1.50
2019-01-11T07:33:37.150Z,1.30
2019-01-11T07:36:28.137Z,1.20
2019-01-11T07:39:01.218Z,1.20
2019-01-11T07:41:34.818Z,1.30
2019-01-11T07:44:08.777Z,1.30
2019-01-11T07:46:42.338Z,1.30
2019-01-11T07:49:16.168Z,1.40
2019-01-11T07:51:49.768Z,1.40
2019-01-11T07:54:22.438Z,1.50
2019-01-11T07:56:55.301Z,1.60
2019-01-11T07:59:28.169Z,1.70
2019-01-11T08:02:02.497Z,1.70
2019-01-11T08:04:35.310Z,1.70
2019-01-11T08:07:08.649Z,1.80
2019-01-11T08:09:41.886Z,1.90
2019-01-11T08:12:14.738Z,1.80
2019-01-11T08:14:47.448Z,1.70
2019-01-11T08:17:20.810Z,1.80
2019-01-11T08:19:54.087Z,1.80
2019-01-11T08:22:45.527Z,1.90
2019-01-11T08:25:19.506Z,1.90
2019-01-11T08:27:51.867Z,1.90
2019-01-11T08:30:26.075Z,1.90
2019-01-11T08:32:59.948Z,1.90
2019-01-11T08:35:33.339Z,1.90
2019-01-11T08:38:06.862Z,2.00
2019-01-11T08:40:40.317Z,2.10
2019-01-11T08:43:13.070Z,2.30
2019-01-11T08:45:45.627Z,2.50
2019-01-11T08:48:18.117Z,2.50
2019-01-11T08:50:51.048Z,2.60
2019-01-11T08:53:38.472Z,2.70
2019-01-11T08:56:11.988Z,2.80
2019-01-11T08:58:44.918Z,2.80
2019-01-11T09:01:18.500Z,2.80
2019-01-11T09:03:51.002Z,2.80
2019-01-11T09:06:24.508Z,2.90
2019-01-11T09:08:58.551Z,2.80
2019-01-11T09:11:32.178Z,2.80
2019-01-11T09:14:06.340Z,2.70
2019-01-11T09:16:39.958Z,2.70
2019-01-11T09:19:13.798Z,2.60
2019-01-11T09:21:47.019Z,2.60
2019-01-11T09:24:19.877Z,2.60
2019-01-11T09:26:52.778Z,2.50
2019-01-11T09:29:25.607Z,2.50
2019-01-11T09:31:59.418Z,2.40
2019-01-11T09:34:32.260Z,2.40
2019-01-11T09:37:05.289Z,2.30
2019-01-11T09:39:38.228Z,2.30
2019-01-11T09:42:11.478Z,2.20
2019-01-11T09:44:45.121Z,2.20
2019-01-11T09:47:19.048Z,2.30
2019-01-11T09:49:52.820Z,2.30
2019-01-11T09:52:25.366Z,2.50
2019-01-11T09:54:58.428Z,2.60
2019-01-11T09:57:31.406Z,2.60
2019-01-11T10:00:03.958Z,2.70
2019-01-11T10:02:48.248Z,2.80
2019-01-11T10:05:21.727Z,2.80
2019-01-11T10:07:54.728Z,2.80
2019-01-11T10:10:27.388Z,2.90
2019-01-11T10:13:00.396Z,2.90
2019-01-11T10:15:33.707Z,3.00
2019-01-11T10:18:06.851Z,3.00
2019-01-11T10:20:40.408Z,3.10
2019-01-11T10:23:14.519Z,3.10
2019-01-11T10:25:47.138Z,3.10
2019-01-11T10:28:20.687Z,3.30
2019-01-11T10:30:53.887Z,3.40
2019-01-11T10:33:26.651Z,3.30
2019-01-11T10:36:00.767Z,3.30
2019-01-11T10:38:33.508Z,3.20
2019-01-11T10:41:06.198Z,3.20
2019-01-11T10:43:39.547Z,3.30
2019-01-11T10:46:31.018Z,3.30
2019-01-11T10:49:04.128Z,3.40
2019-01-11T10:51:36.387Z,3.40
2019-01-11T10:54:14.658Z,3.30
2019-01-11T10:56:48.719Z,3.30
2019-01-11T10:59:21.624Z,3.30
2019-01-11T11:01:56.307Z,3.10
2019-01-11T11:04:29.778Z,3.10
2019-01-11T11:07:03.429Z,3.10
2019-01-11T11:09:36.528Z,3.20
2019-01-11T11:12:09.441Z,3.20
2019-01-11T11:14:42.638Z,3.10
2019-01-11T11:17:16.266Z,3.10
2019-01-11T11:19:50.197Z,3.20
2019-01-11T11:22:23.827Z,3.20
2019-01-11T11:24:57.367Z,3.30
2019-01-11T11:27:30.625Z,3.30
2019-01-11T11:30:03.776Z,3.30
2019-01-11T11:32:50.998Z,3.40
2019-01-11T11:35:23.242Z,3.30
2019-01-11T11:37:56.557Z,3.20
2019-01-11T11:40:30.307Z,3.20
2019-01-11T11:43:03.887Z,3.30
2019-01-11T11:45:37.558Z,3.30
2019-01-11T11:48:11.905Z,3.40
2019-01-11T11:50:45.627Z,3.40
2019-01-11T11:53:18.939Z,3.40
2019-01-11T11:55:52.877Z,3.50
2019-01-11T11:58:26.257Z,3.60
2019-01-11T12:01:00.578Z,3.60
2019-01-11T12:03:33.667Z,3.60
2019-01-11T12:06:06.509Z,3.60
2019-01-11T12:08:40.168Z,3.60
2019-01-11T12:11:13.728Z,3.60
2019-01-11T12:13:46.547Z,3.60
2019-01-11T12:16:19.587Z,3.50
2019-01-11T12:18:53.077Z,3.50
2019-01-11T12:21:26.328Z,3.50
2019-01-11T12:24:00.430Z,3.60
2019-01-11T12:26:33.617Z,3.50
2019-01-11T12:29:07.368Z,3.50
2019-01-11T12:31:41.049Z,3.50
2019-01-11T12:34:14.027Z,3.50
2019-01-11T12:36:46.368Z,3.50
2019-01-11T12:39:19.466Z,3.50
2019-01-11T12:41:52.827Z,3.50
2019-01-11T12:44:26.178Z,3.50
2019-01-11T12:46:59.228Z,3.40
2019-01-11T12:49:32.708Z,3.50
2019-01-11T12:52:06.308Z,3.60
2019-01-11T12:54:40.398Z,3.60
2019-01-11T12:57:13.828Z,3.60
2019-01-11T12:59:46.887Z,3.50
2019-01-11T13:02:20.447Z,3.60
2019-01-11T13:04:55.438Z,3.60
2019-01-11T13:07:28.597Z,4.20
2019-01-11T13:10:02.018Z,3.60
2019-01-11T13:12:35.238Z,3.50
2019-01-11T13:15:09.158Z,3.50
2019-01-11T13:17:42.057Z,3.50
2019-01-11T13:20:16.396Z,3.50
2019-01-11T13:22:51.640Z,3.60
2019-01-11T13:25:25.058Z,3.60
2019-01-11T13:27:58.788Z,3.70
2019-01-11T13:30:32.371Z,3.60
2019-01-11T13:33:06.418Z,3.60
2019-01-11T13:35:38.818Z,3.60
2019-01-11T13:38:10.938Z,3.60
2019-01-11T13:40:44.367Z,3.70
2019-01-11T13:43:17.028Z,3.60
2019-01-11T13:45:51.137Z,3.70
2019-01-11T13:48:24.117Z,3.70
2019-01-11T13:50:57.677Z,3.60
2019-01-11T13:53:31.188Z,3.60
2019-01-11T13:56:04.997Z,3.50
2019-01-11T13:58:38.527Z,3.50
2019-01-11T14:01:11.147Z,3.50
2019-01-11T14:03:44.818Z,3.40
2019-01-11T14:06:18.418Z,3.40
2019-01-11T14:08:51.839Z,3.40
2019-01-11T14:11:24.968Z,3.50
2019-01-11T14:13:59.836Z,3.60
2019-01-11T14:16:33.819Z,3.60
2019-01-11T14:19:07.658Z,3.60
2019-01-11T14:21:40.307Z,3.50
2019-01-11T14:24:13.306Z,3.60
2019-01-11T14:26:47.478Z,3.60
2019-01-11T14:29:20.789Z,3.60
2019-01-11T14:31:53.457Z,3.60
2019-01-11T14:34:28.973Z,3.70
2019-01-11T14:37:02.518Z,3.60
2019-01-11T14:39:35.157Z,3.60
2019-01-11T14:42:07.250Z,3.60
2019-01-11T14:44:40.788Z,3.60
2019-01-11T14:47:15.338Z,3.60
2019-01-11T14:49:48.838Z,3.60
2019-01-11T14:52:22.918Z,3.60
2019-01-11T14:54:57.167Z,3.60
2019-01-11T14:57:31.827Z,3.60
2019-01-11T15:00:07.028Z,3.50
2019-01-11T15:02:39.778Z,3.50
2019-01-11T15:05:15.249Z,3.50
2019-01-11T15:07:48.149Z,3.50
2019-01-11T15:10:21.838Z,3.50
2019-01-11T15:12:55.339Z,3.40
2019-01-11T15:15:29.487Z,3.50
2019-01-11T15:18:02.707Z,3.50
2019-01-11T15:20:36.677Z,3.60
2019-01-11T15:23:13.503Z,3.60
2019-01-11T15:25:44.248Z,3.60
2019-01-11T15:28:17.438Z,3.60
2019-01-11T15:30:51.588Z,3.60
2019-01-11T15:33:25.807Z,3.50
2019-01-11T15:35:59.488Z,3.40
2019-01-11T15:38:33.451Z,3.40
2019-01-11T15:41:07.469Z,3.40
2019-01-11T15:43:40.068Z,3.40
2019-01-11T15:46:15.189Z,3.50
2019-01-11T15:48:55.527Z,3.60
2019-01-11T15:51:30.359Z,3.70
2019-01-11T15:54:04.898Z,3.70
2019-01-11T15:56:37.707Z,3.70
2019-01-11T15:59:11.968Z,3.60
2019-01-11T16:01:45.178Z,3.50
2019-01-11T16:04:18.578Z,3.40
2019-01-11T16:06:51.732Z,3.40
2019-01-11T16:09:59.069Z,3.40
2019-01-11T16:12:53.358Z,3.30
2019-01-11T16:15:49.484Z,3.20
2019-01-11T16:18:33.517Z,3.20
2019-01-11T16:21:06.627Z,3.30
2019-01-11T16:23:39.832Z,3.30
2019-01-11T16:26:10.978Z,3.30
2019-01-11T16:28:44.727Z,3.30
2019-01-11T16:31:21.628Z,3.20
2019-01-11T16:33:53.979Z,3.20
2019-01-11T16:36:28.388Z,3.20
2019-01-11T16:39:02.792Z,3.30
2019-01-11T16:41:35.771Z,3.30
2019-01-11T16:44:08.478Z,3.30
2019-01-11T16:46:41.828Z,3.30
2019-01-11T16:49:15.298Z,3.40
2019-01-11T16:51:47.925Z,3.40
2019-01-11T16:54:21.768Z,3.40
2019-01-11T16:56:55.327Z,3.40
2019-01-11T16:59:27.477Z,3.40
2019-01-11T17:02:00.503Z,3.40
2019-01-11T17:04:33.983Z,3.30
2019-01-11T17:07:07.178Z,3.30
2019-01-11T17:09:40.561Z,3.30
2019-01-11T17:12:12.797Z,3.30
2019-01-11T17:14:45.947Z,3.30
2019-01-11T17:17:19.617Z,3.40
2019-01-11T17:19:53.208Z,3.50
2019-01-11T17:22:26.458Z,3.50
2019-01-11T17:24:58.917Z,3.50
2019-01-11T17:27:33.238Z,3.50
2019-01-11T17:30:05.937Z,3.40
2019-01-11T17:32:38.660Z,3.40
2019-01-11T17:35:12.157Z,3.40
2019-01-11T17:37:45.487Z,3.40
2019-01-11T17:40:19.537Z,3.40
2019-01-11T17:42:52.247Z,3.40
2019-01-11T17:45:25.658Z,3.40
2019-01-11T17:47:59.077Z,3.40
2019-01-11T17:50:32.568Z,3.40
2019-01-11T17:53:06.128Z,3.40
2019-01-11T17:55:40.378Z,3.40
2019-01-11T17:58:14.878Z,3.40
2019-01-11T18:00:48.268Z,3.40
2019-01-11T18:03:21.351Z,3.40
2019-01-11T18:05:54.688Z,3.30
2019-01-11T18:08:28.448Z,3.20
2019-01-11T18:11:02.410Z,3.10
2019-01-11T18:13:35.739Z,3.10
2019-01-11T18:16:09.278Z,3.10
2019-01-11T18:18:42.557Z,3.10
2019-01-11T18:21:15.799Z,3.10
2019-01-11T18:23:48.708Z,3.10
2019-01-11T18:26:22.217Z,3.10
2019-01-11T18:28:55.738Z,3.10
2019-01-11T18:31:29.031Z,3.10
2019-01-11T18:34:02.298Z,3.10
2019-01-11T18:36:36.217Z,3.10
2019-01-11T18:39:11.137Z,3.00
2019-01-11T18:41:44.668Z,3.10
2019-01-11T18:44:17.928Z,3.00
2019-01-11T18:46:52.198Z,2.90
2019-01-11T18:49:25.975Z,3.00
2019-01-11T18:51:59.199Z,2.90
2019-01-11T18:54:33.207Z,2.90
2019-01-11T18:57:06.610Z,2.90
2019-01-11T18:59:40.758Z,2.90
2019-01-11T19:02:14.747Z,2.90
2019-01-11T19:04:48.099Z,2.90
2019-01-11T19:07:22.928Z,2.80
2019-01-11T19:09:55.911Z,2.90
2019-01-11T19:12:29.317Z,2.90
2019-01-11T19:15:02.588Z,2.90
2019-01-11T19:17:36.258Z,2.90
2019-01-11T19:20:15.158Z,2.90
2019-01-11T19:22:48.308Z,2.90
2019-01-11T19:25:20.728Z,3.00
2019-01-11T19:27:54.889Z,3.00
2019-01-11T19:30:30.978Z,2.90
2019-01-11T19:33:04.787Z,2.90
2019-01-11T19:35:38.461Z,2.90
2019-01-11T19:38:11.948Z,2.80
2019-01-11T19:40:45.367Z,2.80
2019-01-11T19:43:18.888Z,2.80
2019-01-11T19:45:51.651Z,2.80
2019-01-11T19:48:24.551Z,2.90
2019-01-11T19:50:58.108Z,2.80
2019-01-11T19:53:31.678Z,2.80
2019-01-11T19:56:05.157Z,2.80
2019-01-11T19:58:38.450Z,2.80
2019-01-11T20:01:11.739Z,2.80
2019-01-11T20:03:44.778Z,2.80
2019-01-11T20:06:17.788Z,2.80
2019-01-11T20:08:51.112Z,2.90
2019-01-11T20:11:24.058Z,2.90
2019-01-11T20:13:57.488Z,2.80
2019-01-11T20:16:30.718Z,2.90
2019-01-11T20:19:04.779Z,2.80
2019-01-11T20:21:38.598Z,2.80
2019-01-11T20:24:12.217Z,2.70
2019-01-11T20:26:46.128Z,2.60
2019-01-11T20:29:19.647Z,2.50
2019-01-11T20:31:51.838Z,2.60
2019-01-11T20:34:25.177Z,2.70
2019-01-11T20:37:08.991Z,2.70
2019-01-11T20:39:43.178Z,2.70
2019-01-11T20:42:16.452Z,2.80
2019-01-11T20:44:50.108Z,2.80
2019-01-11T20:47:23.477Z,2.80
2019-01-11T20:49:57.438Z,2.90
2019-01-11T20:52:30.776Z,2.90
2019-01-11T20:55:03.279Z,2.90
2019-01-11T20:57:36.108Z,2.90
2019-01-11T21:00:12.507Z,2.90
2019-01-11T21:02:46.758Z,2.80
2019-01-11T21:05:20.460Z,2.80
2019-01-11T21:07:53.698Z,2.80
2019-01-11T21:10:28.199Z,2.70
2019-01-11T21:13:01.527Z,2.80
2019-01-11T21:15:35.448Z,2.80
2019-01-11T21:18:09.788Z,2.70
2019-01-11T21:20:42.844Z,2.80
2019-01-11T21:23:16.468Z,2.80
2019-01-11T21:25:49.677Z,2.80
2019-01-11T21:28:24.518Z,2.70
2019-01-11T21:30:57.798Z,2.70
2019-01-11T21:33:30.829Z,2.70
2019-01-11T21:36:03.638Z,2.70
2019-01-11T21:38:36.807Z,2.70
2019-01-11T21:41:10.508Z,2.60
2019-01-11T21:43:43.518Z,2.60
2019-01-11T21:46:16.319Z,2.70
2019-01-11T21:48:49.568Z,2.70
2019-01-11T21:51:22.858Z,2.70
2019-01-11T21:53:56.318Z,2.70
2019-01-11T21:56:29.218Z,2.60
2019-01-11T21:59:02.458Z,2.60
2019-01-11T22:01:35.588Z,2.60
2019-01-11T22:04:09.599Z,2.70
2019-01-11T22:06:43.018Z,2.70
2019-01-11T22:09:16.083Z,2.60
2019-01-11T22:11:49.937Z,2.60
2019-01-11T22:14:23.588Z,2.50
2019-01-11T22:16:56.828Z,2.60
2019-01-11T22:19:30.958Z,2.60
2019-01-11T22:22:04.038Z,2.50
2019-01-11T22:24:37.568Z,2.50
2019-01-11T22:27:10.901Z,2.50
2019-01-11T22:29:43.617Z,2.50
2019-01-11T22:32:16.927Z,2.50
2019-01-11T22:34:49.979Z,2.60
2019-01-11T22:37:23.291Z,2.60
2019-01-11T22:39:56.158Z,2.40
2019-01-11T22:42:29.687Z,2.40
2019-01-11T22:45:02.218Z,2.40
2019-01-11T22:47:35.358Z,2.50
2019-01-11T22:50:08.618Z,2.40
2019-01-11T22:52:42.087Z,2.50
2019-01-11T22:55:16.217Z,2.40
2019-01-11T22:57:49.110Z,2.50
2019-01-11T23:00:51.267Z,2.50
2019-01-11T23:03:27.377Z,2.40
2019-01-11T23:06:09.053Z,2.40
2019-01-11T23:08:39.427Z,2.40
2019-01-11T23:11:55.120Z,2.50
2019-01-11T23:14:28.917Z,2.50
2019-01-11T23:17:27.737Z,2.50
2019-01-11T23:20:00.241Z,2.50
2019-01-11T23:22:33.108Z,2.60
2019-01-11T23:25:06.558Z,2.60
2019-01-11T23:27:40.258Z,2.60
2019-01-11T23:30:16.709Z,2.60
2019-01-11T23:32:49.027Z,2.70
2019-01-11T23:35:22.296Z,2.70
2019-01-11T23:37:55.397Z,2.60
2019-01-11T23:40:28.728Z,2.60
2019-01-11T23:43:02.658Z,2.60
2019-01-11T23:45:36.199Z,2.70
2019-01-11T23:48:09.307Z,2.70
2019-01-11T23:50:41.919Z,2.70
2019-01-11T23:53:14.878Z,2.70
2019-01-11T23:55:48.907Z,2.70
2019-01-11T23:58:22.486Z,2.70
